createdAt,value
2023-05-18T00:00:39.376Z,13.23
2023-05-18T00:01:34.902Z,13.16
2023-05-18T00:02:30.520Z,13.16
2023-05-18T00:03:26.061Z,13.09
2023-05-18T00:04:21.522Z,13.09
2023-05-18T00:05:17.046Z,12.99
2023-05-18T00:06:12.606Z,13.08
2023-05-18T00:07:08.143Z,13.13
2023-05-18T00:08:03.662Z,13.11
2023-05-18T00:08:59.195Z,13.08
2023-05-18T00:09:54.757Z,13.01
2023-05-18T00:10:50.274Z,13.08
2023-05-18T00:11:45.856Z,13.08
2023-05-18T00:12:41.379Z,13.06
2023-05-18T00:13:36.927Z,13.09
2023-05-18T00:14:32.566Z,13.05
2023-05-18T00:15:28.103Z,12.98
2023-05-18T00:16:23.541Z,12.95
2023-05-18T00:17:19.069Z,13.04
2023-05-18T00:18:14.596Z,12.96
2023-05-18T00:19:10.804Z,13.01
2023-05-18T00:20:06.278Z,12.99
2023-05-18T00:21:01.823Z,13.01
2023-05-18T00:21:57.340Z,12.98
2023-05-18T00:22:52.896Z,12.98
2023-05-18T00:23:48.414Z,12.99
2023-05-18T00:24:43.968Z,12.98
2023-05-18T00:25:39.548Z,12.99
2023-05-18T00:26:35.681Z,12.99
2023-05-18T00:27:31.221Z,12.91
2023-05-18T00:28:26.750Z,12.91
2023-05-18T00:29:22.281Z,12.91
2023-05-18T00:30:18.408Z,12.93
2023-05-18T00:31:13.394Z,12.93
2023-05-18T00:32:08.898Z,12.99
2023-05-18T00:33:04.477Z,12.91
2023-05-18T00:33:59.977Z,12.88
2023-05-18T00:34:55.510Z,12.86
2023-05-18T00:35:51.068Z,12.96
2023-05-18T00:36:46.609Z,12.98
2023-05-18T00:37:42.149Z,12.88
2023-05-18T00:38:37.675Z,12.98
2023-05-18T00:39:33.202Z,12.93
2023-05-18T00:40:28.735Z,12.93
2023-05-18T00:41:24.273Z,12.90
2023-05-18T00:42:19.831Z,12.87
2023-05-18T00:43:15.428Z,12.91
2023-05-18T00:44:10.948Z,12.79
2023-05-18T00:45:06.482Z,12.83
2023-05-18T00:46:02.079Z,12.83
2023-05-18T00:46:57.548Z,12.83
2023-05-18T00:47:53.113Z,12.80
2023-05-18T00:48:48.640Z,12.87
2023-05-18T00:49:44.180Z,12.86
2023-05-18T00:50:39.711Z,12.81
2023-05-18T00:51:36.255Z,12.86
2023-05-18T00:52:31.790Z,12.87
2023-05-18T00:53:27.331Z,12.72
2023-05-18T00:54:23.368Z,12.76
2023-05-18T00:55:18.912Z,12.76
2023-05-18T00:56:14.445Z,12.77
2023-05-18T00:57:09.983Z,12.81
2023-05-18T00:58:05.553Z,12.77
2023-05-18T00:59:01.053Z,12.77
2023-05-18T00:59:56.617Z,12.69
2023-05-18T01:00:52.159Z,12.73
2023-05-18T01:01:47.712Z,12.72
2023-05-18T01:02:43.302Z,12.81
2023-05-18T01:03:38.780Z,12.79
2023-05-18T01:04:34.304Z,12.76
2023-05-18T01:05:30.197Z,12.72
2023-05-18T01:06:25.413Z,12.73
2023-05-18T01:07:10.065Z,12.68
2023-05-18T01:08:05.599Z,12.68
2023-05-18T01:09:01.143Z,12.69
2023-05-18T01:09:56.680Z,12.73
2023-05-18T01:10:52.236Z,12.72
2023-05-18T01:11:47.762Z,12.61
2023-05-18T01:12:43.294Z,12.62
2023-05-18T01:13:38.830Z,12.65
2023-05-18T01:14:34.370Z,12.58
2023-05-18T01:15:30.149Z,12.65
2023-05-18T01:16:25.477Z,12.58
2023-05-18T01:17:21.040Z,12.61
2023-05-18T01:18:16.540Z,12.63
2023-05-18T01:19:12.154Z,12.66
2023-05-18T01:20:07.648Z,12.62
2023-05-18T01:21:03.153Z,12.61
2023-05-18T01:21:58.695Z,12.62
2023-05-18T01:22:54.227Z,12.54
2023-05-18T01:23:49.770Z,12.59
2023-05-18T01:24:45.310Z,12.62
2023-05-18T01:25:40.852Z,12.55
2023-05-18T01:26:36.388Z,12.59
2023-05-18T01:27:31.940Z,12.61
2023-05-18T01:28:28.473Z,12.55
2023-05-18T01:29:24.027Z,12.58
2023-05-18T01:30:19.563Z,12.53
2023-05-18T01:31:15.140Z,12.51
2023-05-18T01:32:10.626Z,12.54
2023-05-18T01:33:06.245Z,12.53
2023-05-18T01:34:01.701Z,12.51
2023-05-18T01:34:57.248Z,12.46
2023-05-18T01:35:52.787Z,12.50
2023-05-18T01:36:48.313Z,12.44
2023-05-18T01:37:43.840Z,12.53
2023-05-18T01:38:41.686Z,12.54
2023-05-18T01:39:34.903Z,12.53
2023-05-18T01:40:30.450Z,12.51
2023-05-18T01:41:25.979Z,12.47
2023-05-18T01:42:21.501Z,12.40
2023-05-18T01:43:17.034Z,12.43
2023-05-18T01:44:12.636Z,12.44
2023-05-18T01:45:08.117Z,12.44
2023-05-18T01:46:04.332Z,12.43
2023-05-18T01:46:59.789Z,12.44
2023-05-18T01:47:55.404Z,12.44
2023-05-18T01:48:51.469Z,12.41
2023-05-18T01:49:46.997Z,12.48
2023-05-18T01:50:42.522Z,12.43
2023-05-18T01:51:38.052Z,12.40
2023-05-18T01:52:33.597Z,12.38
2023-05-18T01:53:29.136Z,12.38
2023-05-18T01:54:24.691Z,12.40
2023-05-18T01:55:20.213Z,12.41
2023-05-18T01:56:15.788Z,12.36
2023-05-18T01:57:11.313Z,12.44
2023-05-18T01:58:06.851Z,12.47
2023-05-18T01:59:02.648Z,12.41
2023-05-18T01:59:58.197Z,12.36
2023-05-18T02:00:53.724Z,12.32
2023-05-18T02:01:49.316Z,12.40
2023-05-18T02:02:44.929Z,12.41
2023-05-18T02:03:40.470Z,12.38
2023-05-18T02:04:35.938Z,12.33
2023-05-18T02:05:31.760Z,12.29
2023-05-18T02:06:26.987Z,12.32
2023-05-18T02:07:22.515Z,12.38
2023-05-18T02:08:18.062Z,12.36
2023-05-18T02:09:13.595Z,12.35
2023-05-18T02:10:09.151Z,12.33
2023-05-18T02:11:04.662Z,12.28
2023-05-18T02:12:00.210Z,12.43
2023-05-18T02:12:55.735Z,12.29
2023-05-18T02:13:51.270Z,12.28
2023-05-18T02:14:46.813Z,12.30
2023-05-18T02:15:42.346Z,12.28
2023-05-18T02:16:37.953Z,12.30
2023-05-18T02:17:33.419Z,12.28
2023-05-18T02:18:28.951Z,12.26
2023-05-18T02:19:24.600Z,12.29
2023-05-18T02:20:20.149Z,12.30
2023-05-18T02:21:15.589Z,12.32
2023-05-18T02:22:11.124Z,12.26
2023-05-18T02:23:06.670Z,12.26
2023-05-18T02:24:02.185Z,12.26
2023-05-18T02:24:57.739Z,12.36
2023-05-18T02:25:53.274Z,12.14
2023-05-18T02:26:49.403Z,12.26
2023-05-18T02:27:44.956Z,12.25
2023-05-18T02:28:40.498Z,12.29
2023-05-18T02:29:36.035Z,12.21
2023-05-18T02:30:31.567Z,12.32
2023-05-18T02:31:27.146Z,12.29
2023-05-18T02:32:22.638Z,12.26
2023-05-18T02:33:18.176Z,12.18
2023-05-18T02:34:13.728Z,12.17
2023-05-18T02:35:09.286Z,12.17
2023-05-18T02:36:04.818Z,12.29
2023-05-18T02:37:00.332Z,12.26
2023-05-18T02:37:55.944Z,12.25
2023-05-18T02:38:51.415Z,12.14
2023-05-18T02:39:46.955Z,12.17
2023-05-18T02:40:42.503Z,12.15
2023-05-18T02:41:38.024Z,12.18
2023-05-18T02:42:33.566Z,12.15
2023-05-18T02:43:29.106Z,12.11
2023-05-18T02:44:24.655Z,12.11
2023-05-18T02:45:20.177Z,12.07
2023-05-18T02:46:15.744Z,12.14
2023-05-18T02:47:11.249Z,12.17
2023-05-18T02:48:06.839Z,12.13
2023-05-18T02:49:02.361Z,12.21
2023-05-18T02:49:57.892Z,12.13
2023-05-18T02:50:53.435Z,12.11
2023-05-18T02:51:49.004Z,12.14
2023-05-18T02:52:44.509Z,12.04
2023-05-18T02:53:40.056Z,12.11
2023-05-18T02:54:35.591Z,12.13
2023-05-18T02:55:31.372Z,12.13
2023-05-18T02:56:26.665Z,12.13
2023-05-18T02:57:22.225Z,12.10
2023-05-18T02:58:17.761Z,12.10
2023-05-18T02:59:13.290Z,12.10
2023-05-18T03:00:08.831Z,12.13
2023-05-18T03:01:04.358Z,12.05
2023-05-18T03:01:59.914Z,12.05
2023-05-18T03:02:55.618Z,12.10
2023-05-18T03:03:50.951Z,12.10
2023-05-18T03:04:48.639Z,12.10
2023-05-18T03:05:42.031Z,12.03
2023-05-18T03:06:37.562Z,12.07
2023-05-18T03:07:33.139Z,12.00
2023-05-18T03:08:28.633Z,12.00
2023-05-18T03:09:24.169Z,12.05
2023-05-18T03:10:19.707Z,12.03
2023-05-18T03:11:15.256Z,12.03
2023-05-18T03:12:10.792Z,12.00
2023-05-18T03:13:06.323Z,12.00
2023-05-18T03:14:01.864Z,11.99
2023-05-18T03:14:57.429Z,11.97
2023-05-18T03:15:52.971Z,11.93
2023-05-18T03:16:48.608Z,12.04
2023-05-18T03:17:44.046Z,11.97
2023-05-18T03:18:39.597Z,11.93
2023-05-18T03:19:35.127Z,11.88
2023-05-18T03:20:30.642Z,11.93
2023-05-18T03:21:26.172Z,11.89
2023-05-18T03:22:21.718Z,11.91
2023-05-18T03:23:17.309Z,11.89
2023-05-18T03:24:12.782Z,11.84
2023-05-18T03:25:08.334Z,11.88
2023-05-18T03:26:03.951Z,11.84
2023-05-18T03:26:59.422Z,11.80
2023-05-18T03:27:54.969Z,11.93
2023-05-18T03:28:50.508Z,11.91
2023-05-18T03:29:46.050Z,11.85
2023-05-18T03:30:41.584Z,11.84
2023-05-18T03:31:37.143Z,11.85
2023-05-18T03:32:32.703Z,11.79
2023-05-18T03:33:28.235Z,11.84
2023-05-18T03:34:23.743Z,11.88
2023-05-18T03:35:19.273Z,11.80
2023-05-18T03:36:14.822Z,11.82
2023-05-18T03:37:10.375Z,11.79
2023-05-18T03:38:05.955Z,11.77
2023-05-18T03:39:01.515Z,11.85
2023-05-18T03:39:57.026Z,11.80
2023-05-18T03:40:52.554Z,11.74
2023-05-18T03:41:48.095Z,11.76
2023-05-18T03:42:43.631Z,11.79
2023-05-18T03:43:39.178Z,11.82
2023-05-18T03:44:34.709Z,11.79
2023-05-18T03:45:30.440Z,11.82
2023-05-18T03:46:26.418Z,11.74
2023-05-18T03:47:21.900Z,11.79
2023-05-18T03:48:17.452Z,11.88
2023-05-18T03:49:12.993Z,11.84
2023-05-18T03:50:08.534Z,11.82
2023-05-18T03:51:04.118Z,11.74
2023-05-18T03:51:59.689Z,11.77
2023-05-18T03:52:55.222Z,11.73
2023-05-18T03:53:50.787Z,11.73
2023-05-18T03:54:46.338Z,11.74
2023-05-18T03:55:41.900Z,11.74
2023-05-18T03:56:37.454Z,11.71
2023-05-18T03:57:33.002Z,11.73
2023-05-18T03:58:28.543Z,11.70
2023-05-18T03:59:24.105Z,11.79
2023-05-18T04:00:19.636Z,11.79
2023-05-18T04:01:15.170Z,11.77
2023-05-18T04:02:10.727Z,11.73
2023-05-18T04:03:06.291Z,11.70
2023-05-18T04:04:01.941Z,11.70
2023-05-18T04:04:57.352Z,11.71
2023-05-18T04:05:52.904Z,11.71
2023-05-18T04:06:48.456Z,11.64
2023-05-18T04:07:44.360Z,11.73
2023-05-18T04:08:39.543Z,11.69
2023-05-18T04:09:35.104Z,11.69
2023-05-18T04:10:30.641Z,11.70
2023-05-18T04:11:26.158Z,11.69
2023-05-18T04:12:21.692Z,11.71
2023-05-18T04:13:17.221Z,11.70
2023-05-18T04:14:12.756Z,11.69
2023-05-18T04:15:08.308Z,11.69
2023-05-18T04:16:03.928Z,11.70
2023-05-18T04:16:59.407Z,11.67
2023-05-18T04:17:55.015Z,11.69
2023-05-18T04:18:50.624Z,11.69
2023-05-18T04:19:46.053Z,11.69
2023-05-18T04:20:41.610Z,11.70
2023-05-18T04:21:37.119Z,11.66
2023-05-18T04:22:32.662Z,11.67
2023-05-18T04:23:28.199Z,11.76
2023-05-18T04:24:23.743Z,11.61
2023-05-18T04:25:19.287Z,11.69
2023-05-18T04:26:14.838Z,11.70
2023-05-18T04:27:10.366Z,11.70
2023-05-18T04:28:05.892Z,11.76
2023-05-18T04:29:01.435Z,11.67
2023-05-18T04:29:56.974Z,11.70
2023-05-18T04:30:52.514Z,11.64
2023-05-18T04:31:48.227Z,11.71
2023-05-18T04:32:43.806Z,11.62
2023-05-18T04:33:39.123Z,11.61
2023-05-18T04:34:34.663Z,11.67
2023-05-18T04:35:30.386Z,11.73
2023-05-18T04:36:25.742Z,11.74
2023-05-18T04:37:21.288Z,11.73
2023-05-18T04:38:16.883Z,11.71
2023-05-18T04:39:12.405Z,11.69
2023-05-18T04:40:07.948Z,11.71
2023-05-18T04:41:03.503Z,11.67
2023-05-18T04:41:59.298Z,11.74
2023-05-18T04:42:54.745Z,11.70
2023-05-18T04:43:50.305Z,11.71
2023-05-18T04:44:45.850Z,11.64
2023-05-18T04:45:41.436Z,11.69
2023-05-18T04:46:37.082Z,11.66
2023-05-18T04:47:32.775Z,11.69
2023-05-18T04:48:28.267Z,11.69
2023-05-18T04:49:23.800Z,11.67
2023-05-18T04:50:19.335Z,11.58
2023-05-18T04:51:14.879Z,11.69
2023-05-18T04:52:10.428Z,11.70
2023-05-18T04:53:05.969Z,11.66
2023-05-18T04:54:01.502Z,11.64
2023-05-18T04:54:57.034Z,11.62
2023-05-18T04:55:52.594Z,11.69
2023-05-18T04:56:48.126Z,11.70
2023-05-18T04:57:32.814Z,11.66
2023-05-18T04:58:30.400Z,11.70
2023-05-18T04:59:24.861Z,11.69
2023-05-18T05:00:20.392Z,11.62
2023-05-18T05:01:16.024Z,11.64
2023-05-18T05:02:11.489Z,11.71
2023-05-18T05:03:07.084Z,11.80
2023-05-18T05:04:02.568Z,11.69
2023-05-18T05:04:58.080Z,11.77
2023-05-18T05:05:53.608Z,11.73
2023-05-18T05:06:49.166Z,11.73
2023-05-18T05:07:44.718Z,11.69
2023-05-18T05:08:40.250Z,11.73
2023-05-18T05:09:35.780Z,11.73
2023-05-18T05:10:31.339Z,11.70
2023-05-18T05:11:26.845Z,11.74
2023-05-18T05:12:22.384Z,11.76
2023-05-18T05:13:17.960Z,11.73
2023-05-18T05:14:13.496Z,11.71
2023-05-18T05:15:09.038Z,11.80
2023-05-18T05:16:04.582Z,11.76
2023-05-18T05:17:00.151Z,11.82
2023-05-18T05:17:55.680Z,11.82
2023-05-18T05:18:51.291Z,11.74
2023-05-18T05:19:46.757Z,11.88
2023-05-18T05:20:42.303Z,11.87
2023-05-18T05:21:37.851Z,11.79
2023-05-18T05:22:33.400Z,11.84
2023-05-18T05:23:18.075Z,11.84
2023-05-18T05:24:13.589Z,11.80
2023-05-18T05:25:09.139Z,11.82
2023-05-18T05:26:04.658Z,11.89
2023-05-18T05:27:00.239Z,11.87
2023-05-18T05:27:55.777Z,11.87
2023-05-18T05:28:51.338Z,11.91
2023-05-18T05:29:46.849Z,11.96
2023-05-18T05:30:42.385Z,11.88
2023-05-18T05:31:38.029Z,11.91
2023-05-18T05:32:33.481Z,11.97
2023-05-18T05:33:29.000Z,12.03
2023-05-18T05:34:24.537Z,11.85
2023-05-18T05:35:20.073Z,12.03
2023-05-18T05:36:15.610Z,11.99
2023-05-18T05:37:11.162Z,12.05
2023-05-18T05:38:06.707Z,11.99
2023-05-18T05:39:02.254Z,12.08
2023-05-18T05:39:57.791Z,12.04
2023-05-18T05:40:53.343Z,12.03
2023-05-18T05:41:48.880Z,12.04
2023-05-18T05:42:44.410Z,12.11
2023-05-18T05:43:39.960Z,12.11
2023-05-18T05:44:35.548Z,12.13
2023-05-18T05:45:31.532Z,12.14
2023-05-18T05:46:26.786Z,12.07
2023-05-18T05:47:22.287Z,12.17
2023-05-18T05:48:18.939Z,12.07
2023-05-18T05:49:02.562Z,12.11
2023-05-18T05:49:58.095Z,12.13
2023-05-18T05:50:53.733Z,12.17
2023-05-18T05:51:49.198Z,12.18
2023-05-18T05:52:33.905Z,12.25
2023-05-18T05:53:29.659Z,12.15
2023-05-18T05:54:25.164Z,12.17
2023-05-18T05:55:20.689Z,12.11
2023-05-18T05:56:16.220Z,12.18
2023-05-18T05:57:11.774Z,12.32
2023-05-18T05:58:07.308Z,12.33
2023-05-18T05:59:02.848Z,12.23
2023-05-18T05:59:58.413Z,12.26
2023-05-18T06:00:53.929Z,12.30
2023-05-18T06:01:49.611Z,12.26
2023-05-18T06:02:45.039Z,12.30
2023-05-18T06:03:40.619Z,12.28
2023-05-18T06:04:36.228Z,12.40
2023-05-18T06:05:31.925Z,12.43
2023-05-18T06:06:27.194Z,12.33
2023-05-18T06:07:22.714Z,12.36
2023-05-18T06:08:18.252Z,12.40
2023-05-18T06:09:13.809Z,12.40
2023-05-18T06:10:09.331Z,12.44
2023-05-18T06:11:04.872Z,12.41
2023-05-18T06:12:00.427Z,12.43
2023-05-18T06:12:55.959Z,12.44
2023-05-18T06:13:51.505Z,12.51
2023-05-18T06:14:47.065Z,12.55
2023-05-18T06:15:42.626Z,12.58
2023-05-18T06:16:38.169Z,12.55
2023-05-18T06:17:33.683Z,12.54
2023-05-18T06:18:29.202Z,12.62
2023-05-18T06:19:24.861Z,12.61
2023-05-18T06:20:20.312Z,12.69
2023-05-18T06:21:15.844Z,12.62
2023-05-18T06:22:11.398Z,12.72
2023-05-18T06:23:06.937Z,12.71
2023-05-18T06:24:02.452Z,12.77
2023-05-18T06:24:58.002Z,12.86
2023-05-18T06:25:53.537Z,12.84
2023-05-18T06:26:49.074Z,12.88
2023-05-18T06:27:44.627Z,13.05
2023-05-18T06:28:40.156Z,13.14
2023-05-18T06:29:35.704Z,13.16
2023-05-18T06:30:31.262Z,13.23
2023-05-18T06:31:28.208Z,13.35
2023-05-18T06:32:23.439Z,13.45
2023-05-18T06:33:18.923Z,13.55
2023-05-18T06:34:14.413Z,13.73
2023-05-18T06:35:09.943Z,13.79
2023-05-18T06:36:05.503Z,13.94
2023-05-18T06:37:01.034Z,14.00
2023-05-18T06:37:56.552Z,14.01
2023-05-18T06:38:52.096Z,14.13
2023-05-18T06:39:47.651Z,14.26
2023-05-18T06:40:43.172Z,14.18
2023-05-18T06:41:38.716Z,14.31
2023-05-18T06:42:34.257Z,14.26
2023-05-18T06:43:29.792Z,14.19
2023-05-18T06:44:25.343Z,14.23
2023-05-18T06:45:20.892Z,14.33
2023-05-18T06:46:16.471Z,14.37
2023-05-18T06:47:12.031Z,14.40
2023-05-18T06:48:07.590Z,14.34
2023-05-18T06:49:03.080Z,14.52
2023-05-18T06:49:58.608Z,14.64
2023-05-18T06:50:54.147Z,14.69
2023-05-18T06:51:49.701Z,14.66
2023-05-18T06:52:45.264Z,14.86
2023-05-18T06:53:40.797Z,14.87
2023-05-18T06:54:36.345Z,14.85
2023-05-18T06:55:32.150Z,15.03
2023-05-18T06:56:27.418Z,15.14
2023-05-18T06:57:22.960Z,15.11
2023-05-18T06:58:18.561Z,15.08
2023-05-18T06:59:14.089Z,15.15
2023-05-18T07:00:09.650Z,15.23
2023-05-18T07:01:05.192Z,15.22
2023-05-18T07:02:00.772Z,15.36
2023-05-18T07:02:56.325Z,15.41
2023-05-18T07:03:51.859Z,15.45
2023-05-18T07:04:47.333Z,15.58
2023-05-18T07:05:42.876Z,15.66
2023-05-18T07:06:38.414Z,15.60
2023-05-18T07:07:33.975Z,15.70
2023-05-18T07:08:29.518Z,15.76
2023-05-18T07:09:25.062Z,15.73
2023-05-18T07:10:20.594Z,15.90
2023-05-18T07:11:16.138Z,15.85
2023-05-18T07:12:11.684Z,15.84
2023-05-18T07:13:07.240Z,15.91
2023-05-18T07:14:02.790Z,15.99
2023-05-18T07:14:58.329Z,16.03
2023-05-18T07:15:53.900Z,16.18
2023-05-18T07:16:49.416Z,16.32
2023-05-18T07:17:44.997Z,16.32
2023-05-18T07:18:40.567Z,16.32
2023-05-18T07:19:36.069Z,16.47
2023-05-18T07:20:31.583Z,16.54
2023-05-18T07:21:27.131Z,16.59
2023-05-18T07:22:22.705Z,16.77
2023-05-18T07:23:18.223Z,16.82
2023-05-18T07:24:13.758Z,16.94
2023-05-18T07:25:09.329Z,16.92
2023-05-18T07:26:04.863Z,16.98
2023-05-18T07:27:01.159Z,16.97
2023-05-18T07:27:55.937Z,16.97
2023-05-18T07:28:51.488Z,17.06
2023-05-18T07:29:47.020Z,17.19
2023-05-18T07:30:42.563Z,17.25
2023-05-18T07:31:38.293Z,17.30
2023-05-18T07:32:33.669Z,17.25
2023-05-18T07:33:29.231Z,17.25
2023-05-18T07:34:24.795Z,17.38
2023-05-18T07:35:20.333Z,17.54
2023-05-18T07:36:15.869Z,17.52
2023-05-18T07:37:11.398Z,17.47
2023-05-18T07:38:06.934Z,17.52
2023-05-18T07:39:02.482Z,17.47
2023-05-18T07:39:58.023Z,17.46
2023-05-18T07:40:53.568Z,17.47
2023-05-18T07:41:49.120Z,17.50
2023-05-18T07:42:44.669Z,17.45
2023-05-18T07:43:40.200Z,17.54
2023-05-18T07:44:35.737Z,17.50
2023-05-18T07:45:31.660Z,17.50
2023-05-18T07:46:26.900Z,17.50
2023-05-18T07:47:22.457Z,17.53
2023-05-18T07:48:17.931Z,17.53
2023-05-18T07:49:13.469Z,17.46
2023-05-18T07:50:09.081Z,17.32
2023-05-18T07:51:04.547Z,17.31
2023-05-18T07:52:00.101Z,17.45
2023-05-18T07:52:55.620Z,17.47
2023-05-18T07:53:51.163Z,17.47
2023-05-18T07:54:47.735Z,17.57
2023-05-18T07:55:43.270Z,17.63
2023-05-18T07:56:38.823Z,17.52
2023-05-18T07:57:34.368Z,17.59
2023-05-18T07:58:29.907Z,17.71
2023-05-18T07:59:25.452Z,17.69
2023-05-18T08:00:21.039Z,17.68
2023-05-18T08:01:16.570Z,17.63
2023-05-18T08:02:12.149Z,17.63
2023-05-18T08:03:07.756Z,17.52
2023-05-18T08:04:03.401Z,17.65
2023-05-18T08:04:58.746Z,17.56
2023-05-18T08:05:54.413Z,17.71
2023-05-18T08:06:49.828Z,17.65
2023-05-18T08:07:45.385Z,17.56
2023-05-18T08:08:40.923Z,17.50
2023-05-18T08:09:36.474Z,17.52
2023-05-18T08:10:32.014Z,17.46
2023-05-18T08:11:27.557Z,17.46
2023-05-18T08:12:23.098Z,17.43
2023-05-18T08:13:18.640Z,17.45
2023-05-18T08:14:03.308Z,17.39
2023-05-18T08:14:58.851Z,17.30
2023-05-18T08:16:09.848Z,17.30
2023-05-18T08:16:49.974Z,17.24
2023-05-18T08:17:45.462Z,17.32
2023-05-18T08:18:41.064Z,17.37
2023-05-18T08:19:36.519Z,17.45
2023-05-18T08:20:32.075Z,17.37
2023-05-18T08:21:27.617Z,17.45
2023-05-18T08:22:23.151Z,17.49
2023-05-18T08:23:18.690Z,17.46
2023-05-18T08:24:14.232Z,17.45
2023-05-18T08:25:09.768Z,17.56
2023-05-18T08:26:05.297Z,17.57
2023-05-18T08:27:00.863Z,17.69
2023-05-18T08:27:56.396Z,17.75
2023-05-18T08:28:51.942Z,17.78
2023-05-18T08:29:47.491Z,17.83
2023-05-18T08:30:43.027Z,17.90
2023-05-18T08:31:38.600Z,17.88
2023-05-18T08:32:34.177Z,17.90
2023-05-18T08:33:29.628Z,17.79
2023-05-18T08:34:25.219Z,17.78
2023-05-18T08:35:20.763Z,17.72
2023-05-18T08:36:16.306Z,17.73
2023-05-18T08:37:11.907Z,17.86
2023-05-18T08:38:07.377Z,17.83
2023-05-18T08:39:02.909Z,17.88
2023-05-18T08:39:58.450Z,17.86
2023-05-18T08:40:53.991Z,17.94
2023-05-18T08:41:49.548Z,17.91
2023-05-18T08:42:49.833Z,18.02
2023-05-18T08:43:40.614Z,18.02
2023-05-18T08:44:36.155Z,18.11
2023-05-18T08:45:31.942Z,18.06
2023-05-18T08:46:27.248Z,18.17
2023-05-18T08:47:22.815Z,18.23
2023-05-18T08:48:18.417Z,18.20
2023-05-18T08:49:13.917Z,18.02
2023-05-18T08:50:09.421Z,18.15
2023-05-18T08:51:04.959Z,18.11
2023-05-18T08:52:00.538Z,18.30
2023-05-18T08:52:56.108Z,18.38
2023-05-18T08:53:51.602Z,18.41
2023-05-18T08:54:47.133Z,18.41
2023-05-18T08:55:42.723Z,18.38
2023-05-18T08:56:38.254Z,18.38
2023-05-18T08:57:33.800Z,18.42
2023-05-18T08:58:29.319Z,18.38
2023-05-18T08:59:24.863Z,18.33
2023-05-18T09:00:22.944Z,18.27
2023-05-18T09:01:16.018Z,18.33
2023-05-18T09:02:11.592Z,18.38
2023-05-18T09:03:07.074Z,18.30
2023-05-18T09:04:02.596Z,18.39
2023-05-18T09:04:58.157Z,18.54
2023-05-18T09:05:53.668Z,18.60
2023-05-18T09:06:49.216Z,18.49
2023-05-18T09:07:44.772Z,18.56
2023-05-18T09:08:40.347Z,18.48
2023-05-18T09:09:35.841Z,18.34
2023-05-18T09:10:31.372Z,18.48
2023-05-18T09:11:26.954Z,18.49
2023-05-18T09:12:24.473Z,18.58
2023-05-18T09:13:17.987Z,18.52
2023-05-18T09:14:13.534Z,18.45
2023-05-18T09:15:09.076Z,18.41
2023-05-18T09:16:04.683Z,18.39
2023-05-18T09:17:00.182Z,18.36
2023-05-18T09:17:55.803Z,18.41
2023-05-18T09:18:51.324Z,18.41
2023-05-18T09:19:46.830Z,18.39
2023-05-18T09:20:42.364Z,18.36
2023-05-18T09:21:37.902Z,18.36
2023-05-18T09:22:33.436Z,18.43
2023-05-18T09:23:28.960Z,18.34
2023-05-18T09:24:24.991Z,18.39
2023-05-18T09:25:09.186Z,18.34
2023-05-18T09:26:04.713Z,18.39
2023-05-18T09:27:00.245Z,18.36
2023-05-18T09:27:55.806Z,18.39
2023-05-18T09:28:51.324Z,18.45
2023-05-18T09:29:46.878Z,18.41
2023-05-18T09:30:42.417Z,18.39
2023-05-18T09:31:37.972Z,18.39
2023-05-18T09:32:33.524Z,18.23
2023-05-18T09:33:29.063Z,18.26
2023-05-18T09:34:24.700Z,18.42
2023-05-18T09:35:20.104Z,18.21
2023-05-18T09:36:15.651Z,18.20
2023-05-18T09:37:11.192Z,18.27
2023-05-18T09:38:06.727Z,18.23
2023-05-18T09:39:02.265Z,18.24
2023-05-18T09:39:57.834Z,18.24
2023-05-18T09:40:53.353Z,18.24
2023-05-18T09:41:48.886Z,18.39
2023-05-18T09:42:44.435Z,18.67
2023-05-18T09:43:39.973Z,18.70
2023-05-18T09:44:35.515Z,18.88
2023-05-18T09:45:31.341Z,18.97
2023-05-18T09:46:26.691Z,18.94
2023-05-18T09:47:22.155Z,19.07
2023-05-18T09:48:17.677Z,19.08
2023-05-18T09:49:13.207Z,19.05
2023-05-18T09:50:08.756Z,19.05
2023-05-18T09:51:04.292Z,19.19
2023-05-18T09:51:59.845Z,19.17
2023-05-18T09:52:55.378Z,19.27
2023-05-18T09:53:50.909Z,19.50
2023-05-18T09:54:46.456Z,19.56
2023-05-18T09:55:42.025Z,19.67
2023-05-18T09:56:37.538Z,19.70
2023-05-18T09:57:33.119Z,19.81
2023-05-18T09:58:28.665Z,19.93
2023-05-18T09:59:24.210Z,19.99
2023-05-18T10:00:19.958Z,20.07
2023-05-18T10:01:15.407Z,20.11
2023-05-18T10:02:10.861Z,20.09
2023-05-18T10:03:06.434Z,20.18
2023-05-18T10:04:01.989Z,20.18
2023-05-18T10:04:57.484Z,20.36
2023-05-18T10:05:53.023Z,20.32
2023-05-18T10:06:37.688Z,20.42
2023-05-18T10:07:33.227Z,20.52
2023-05-18T10:08:28.788Z,20.49
2023-05-18T10:09:24.323Z,20.49
2023-05-18T10:10:19.928Z,20.50
2023-05-18T10:11:15.417Z,20.63
2023-05-18T10:12:10.952Z,20.73
2023-05-18T10:13:06.496Z,20.80
2023-05-18T10:14:02.049Z,20.77
2023-05-18T10:14:57.591Z,20.80
2023-05-18T10:15:53.129Z,20.86
2023-05-18T10:16:48.943Z,20.79
2023-05-18T10:17:44.248Z,20.67
2023-05-18T10:18:39.776Z,20.52
2023-05-18T10:19:35.315Z,20.52
2023-05-18T10:20:31.068Z,20.60
2023-05-18T10:21:26.399Z,20.61
2023-05-18T10:22:21.927Z,20.58
2023-05-18T10:23:17.482Z,20.65
2023-05-18T10:24:13.012Z,20.68
2023-05-18T10:25:08.564Z,20.71
2023-05-18T10:26:04.107Z,20.71
2023-05-18T10:26:59.717Z,20.73
2023-05-18T10:27:55.172Z,20.70
2023-05-18T10:28:50.723Z,20.74
2023-05-18T10:29:46.281Z,20.73
2023-05-18T10:30:41.824Z,20.74
2023-05-18T10:31:37.414Z,20.75
2023-05-18T10:32:32.928Z,20.70
2023-05-18T10:33:29.941Z,20.77
2023-05-18T10:34:23.961Z,20.79
2023-05-18T10:35:19.513Z,20.98
2023-05-18T10:36:15.053Z,21.14
2023-05-18T10:37:12.159Z,21.37
2023-05-18T10:38:06.136Z,21.53
2023-05-18T10:39:01.666Z,21.58
2023-05-18T10:39:57.211Z,21.82
2023-05-18T10:40:52.768Z,22.11
2023-05-18T10:41:48.308Z,22.34
2023-05-18T10:42:43.883Z,22.43
2023-05-18T10:43:39.397Z,22.67
2023-05-18T10:44:34.913Z,22.80
2023-05-18T10:45:30.446Z,23.01
2023-05-18T10:46:26.070Z,23.22
2023-05-18T10:47:21.722Z,23.41
2023-05-18T10:48:17.162Z,23.69
2023-05-18T10:49:12.640Z,23.79
2023-05-18T10:50:08.192Z,24.01
2023-05-18T10:51:03.737Z,24.25
2023-05-18T10:51:59.284Z,24.28
2023-05-18T10:52:54.830Z,24.51
2023-05-18T10:53:50.378Z,24.78
2023-05-18T10:54:45.916Z,24.99
2023-05-18T10:55:41.461Z,25.15
2023-05-18T10:56:37.005Z,25.16
2023-05-18T10:57:32.567Z,25.26
2023-05-18T10:58:28.118Z,25.31
2023-05-18T10:59:23.643Z,25.22
2023-05-18T11:00:19.193Z,25.38
2023-05-18T11:01:14.760Z,25.26
2023-05-18T11:02:10.306Z,25.26
2023-05-18T11:03:05.969Z,25.33
2023-05-18T11:04:01.423Z,25.18
2023-05-18T11:04:57.212Z,25.22
2023-05-18T11:05:52.514Z,25.16
2023-05-18T11:06:48.063Z,25.18
2023-05-18T11:07:43.609Z,25.18
2023-05-18T11:08:39.193Z,25.15
2023-05-18T11:09:34.748Z,25.14
2023-05-18T11:10:30.533Z,25.03
2023-05-18T11:11:25.842Z,24.89
2023-05-18T11:12:21.387Z,25.08
2023-05-18T11:13:16.957Z,25.22
2023-05-18T11:14:12.500Z,25.19
2023-05-18T11:15:08.023Z,25.26
2023-05-18T11:16:03.612Z,25.16
2023-05-18T11:16:59.173Z,25.16
2023-05-18T11:17:54.706Z,25.36
2023-05-18T11:18:50.256Z,25.46
2023-05-18T11:19:45.777Z,25.53
2023-05-18T11:20:41.325Z,25.68
2023-05-18T11:21:36.861Z,25.81
2023-05-18T11:22:32.416Z,26.07
2023-05-18T11:23:27.952Z,26.05
2023-05-18T11:24:23.556Z,26.03
2023-05-18T11:25:19.054Z,26.15
2023-05-18T11:26:14.600Z,26.45
2023-05-18T11:27:10.159Z,26.63
2023-05-18T11:28:05.719Z,26.60
2023-05-18T11:29:01.260Z,26.68
2023-05-18T11:30:11.719Z,26.60
2023-05-18T11:30:52.353Z,26.75
2023-05-18T11:31:47.938Z,26.79
2023-05-18T11:32:43.546Z,26.94
2023-05-18T11:33:39.048Z,27.10
2023-05-18T11:34:35.499Z,27.34
2023-05-18T11:35:30.101Z,27.40
2023-05-18T11:36:25.653Z,27.44
2023-05-18T11:37:21.197Z,27.54
2023-05-18T11:38:16.760Z,27.54
2023-05-18T11:39:12.309Z,27.54
2023-05-18T11:40:10.206Z,27.57
2023-05-18T11:41:03.399Z,27.75
2023-05-18T11:41:58.978Z,28.15
2023-05-18T11:42:54.573Z,28.17
2023-05-18T11:43:50.124Z,28.31
2023-05-18T11:44:45.683Z,28.43
2023-05-18T11:45:30.419Z,28.44
2023-05-18T11:46:25.914Z,28.31
2023-05-18T11:47:21.466Z,28.28
2023-05-18T11:48:17.054Z,28.07
2023-05-18T11:49:12.635Z,27.87
2023-05-18T11:50:08.125Z,27.73
2023-05-18T11:51:03.676Z,27.75
2023-05-18T11:51:59.282Z,27.82
2023-05-18T11:52:54.774Z,27.79
2023-05-18T11:53:50.332Z,27.95